createdAt,value
2023-04-16T00:01:20.881Z,63.42
2023-04-16T00:03:49.017Z,63.09
2023-04-16T00:06:17.152Z,63.18
2023-04-16T00:08:45.202Z,63.15
2023-04-16T00:11:13.072Z,62.87
2023-04-16T00:13:41.491Z,63.54
2023-04-16T00:16:09.560Z,63.07
2023-04-16T00:18:37.366Z,63.26
2023-04-16T00:21:05.700Z,63.11
2023-04-16T00:23:33.575Z,63.28
2023-04-16T00:26:01.517Z,63.20
2023-04-16T00:28:29.828Z,63.56
2023-04-16T00:30:57.926Z,64.14
2023-04-16T00:33:25.811Z,64.41
2023-04-16T00:35:53.680Z,65.02
2023-04-16T00:38:21.594Z,64.69
2023-04-16T00:40:49.511Z,64.99
2023-04-16T00:43:23.294Z,64.77
2023-04-16T00:45:52.321Z,64.93
2023-04-16T00:48:21.308Z,63.85
2023-04-16T00:50:49.405Z,64.57
2023-04-16T00:53:17.308Z,64.21
2023-04-16T00:55:46.177Z,64.73
2023-04-16T00:58:14.075Z,64.88
2023-04-16T01:00:42.160Z,64.85
2023-04-16T01:03:10.846Z,64.55
2023-04-16T01:05:39.562Z,64.84
2023-04-16T01:08:07.489Z,65.32
2023-04-16T01:10:35.482Z,65.42
2023-04-16T01:13:03.395Z,65.85
2023-04-16T01:15:31.365Z,65.52
2023-04-16T01:17:59.261Z,66.47
2023-04-16T01:20:27.282Z,67.16
2023-04-16T01:22:55.135Z,66.43
2023-04-16T01:25:23.318Z,66.39
2023-04-16T01:27:51.292Z,65.59
2023-04-16T01:30:19.382Z,66.04
2023-04-16T01:32:58.215Z,65.15
2023-04-16T01:35:26.284Z,65.58
2023-04-16T01:37:54.212Z,66.01
2023-04-16T01:40:22.293Z,65.69
2023-04-16T01:42:51.322Z,65.10
2023-04-16T01:45:19.356Z,65.59
2023-04-16T01:47:47.638Z,64.90
2023-04-16T01:50:15.941Z,65.03
2023-04-16T01:52:44.117Z,65.85
2023-04-16T01:55:12.399Z,66.14
2023-04-16T01:57:40.383Z,66.90
2023-04-16T02:00:09.427Z,66.63
2023-04-16T02:02:47.319Z,65.95
2023-04-16T02:05:21.704Z,66.47
2023-04-16T02:07:49.832Z,67.08
2023-04-16T02:10:20.068Z,68.57
2023-04-16T02:12:49.122Z,68.10
2023-04-16T02:15:17.095Z,67.75
2023-04-16T02:17:46.831Z,67.20
2023-04-16T02:20:14.988Z,67.02
2023-04-16T02:22:49.909Z,65.92
2023-04-16T02:25:21.027Z,66.47
2023-04-16T02:27:51.111Z,66.56
2023-04-16T02:30:35.197Z,66.85
2023-04-16T02:33:08.875Z,66.41
2023-04-16T02:35:39.757Z,66.71
2023-04-16T02:38:08.693Z,67.47
2023-04-16T02:40:37.129Z,67.73
2023-04-16T02:43:04.962Z,67.72
2023-04-16T02:45:32.988Z,68.17
2023-04-16T02:48:01.129Z,67.23
2023-04-16T02:50:29.224Z,66.94
2023-04-16T02:55:52.810Z,67.42
2023-04-16T02:58:22.154Z,67.70
2023-04-16T03:00:51.128Z,68.76
2023-04-16T03:03:19.558Z,69.14
2023-04-16T03:05:48.713Z,68.35
2023-04-16T03:08:17.620Z,68.65
2023-04-16T03:13:37.828Z,68.67
2023-04-16T03:16:06.293Z,68.01
2023-04-16T03:18:34.168Z,69.50
2023-04-16T03:21:02.056Z,69.03
2023-04-16T03:23:30.936Z,69.35
2023-04-16T03:25:58.864Z,69.83
2023-04-16T03:28:27.442Z,69.40
2023-04-16T03:30:55.777Z,68.89
2023-04-16T03:33:23.923Z,68.51
2023-04-16T03:35:59.353Z,68.99
2023-04-16T03:38:30.801Z,68.68
2023-04-16T03:41:02.449Z,67.40
2023-04-16T03:43:34.285Z,67.24
2023-04-16T03:46:02.266Z,67.06
2023-04-16T03:48:30.262Z,68.47
2023-04-16T03:50:59.415Z,68.73
2023-04-16T03:53:27.872Z,68.94
2023-04-16T03:55:56.185Z,69.03
2023-04-16T03:58:24.999Z,69.60
2023-04-16T04:00:55.596Z,69.36
2023-04-16T04:03:24.025Z,69.41
2023-04-16T04:05:52.274Z,69.52
2023-04-16T04:08:26.519Z,69.14
2023-04-16T04:10:54.880Z,68.71
2023-04-16T04:13:24.305Z,68.90
2023-04-16T04:15:53.219Z,68.91
2023-04-16T04:18:22.169Z,68.65
2023-04-16T04:20:50.291Z,69.17
2023-04-16T04:23:20.955Z,69.40
2023-04-16T04:25:49.429Z,68.68
2023-04-16T04:28:17.535Z,68.46
2023-04-16T04:30:45.476Z,67.97
2023-04-16T04:33:13.976Z,68.55
2023-04-16T04:35:42.937Z,67.98
2023-04-16T04:38:10.999Z,68.18
2023-04-16T04:40:39.428Z,68.52
2023-04-16T04:43:07.784Z,68.12
2023-04-16T04:45:35.554Z,68.17
2023-04-16T04:48:04.220Z,68.84
2023-04-16T04:50:32.848Z,68.87
2023-04-16T04:53:00.908Z,68.19
2023-04-16T04:55:28.849Z,68.04
2023-04-16T04:57:56.978Z,67.82
2023-04-16T05:00:25.162Z,67.68
2023-04-16T05:02:55.880Z,67.49
2023-04-16T05:05:24.022Z,67.15
2023-04-16T05:07:51.904Z,67.82
2023-04-16T05:10:19.936Z,68.15
2023-04-16T05:12:51.322Z,68.81
2023-04-16T05:15:19.688Z,67.50
2023-04-16T05:17:47.651Z,67.09
2023-04-16T05:20:15.649Z,67.10
2023-04-16T05:22:43.688Z,66.52
2023-04-16T05:25:11.499Z,66.73
2023-04-16T05:27:39.724Z,67.52
2023-04-16T05:30:08.350Z,67.56
2023-04-16T05:32:36.873Z,67.63
2023-04-16T05:35:05.469Z,68.47
2023-04-16T05:37:33.292Z,67.16
2023-04-16T05:40:01.387Z,67.17
2023-04-16T05:42:29.734Z,66.08
2023-04-16T05:44:57.934Z,66.06
2023-04-16T05:47:25.947Z,65.56
2023-04-16T05:49:54.034Z,65.60
2023-04-16T05:52:21.984Z,64.17
2023-04-16T05:54:50.111Z,62.55
2023-04-16T05:57:18.078Z,61.41
2023-04-16T05:59:46.040Z,60.13
2023-04-16T06:02:14.234Z,58.34
2023-04-16T06:04:42.388Z,54.72
2023-04-16T06:07:10.996Z,52.31
2023-04-16T06:09:39.247Z,51.83
2023-04-16T06:12:07.742Z,52.61
2023-04-16T06:14:36.039Z,52.54
2023-04-16T06:17:04.033Z,53.77
2023-04-16T06:19:32.493Z,53.13
2023-04-16T06:22:00.577Z,53.66
2023-04-16T06:24:29.053Z,53.20
2023-04-16T06:26:57.641Z,52.91
2023-04-16T06:29:33.658Z,53.03
2023-04-16T06:32:09.992Z,51.61
2023-04-16T06:34:38.291Z,50.33
2023-04-16T06:37:09.080Z,49.67
2023-04-16T06:39:39.021Z,49.43
2023-04-16T06:42:07.593Z,49.54
2023-04-16T06:44:36.306Z,50.81
2023-04-16T06:47:05.098Z,51.06
2023-04-16T06:49:33.504Z,51.03
2023-04-16T06:52:03.885Z,51.20
2023-04-16T06:54:34.221Z,51.12
2023-04-16T06:57:02.940Z,50.39
2023-04-16T06:59:31.974Z,49.87
2023-04-16T07:02:00.433Z,46.97
2023-04-16T07:04:28.901Z,44.55
2023-04-16T07:06:57.287Z,42.48
2023-04-16T07:09:27.053Z,41.97
2023-04-16T07:11:55.708Z,44.46
2023-04-16T07:14:24.017Z,45.37
2023-04-16T07:16:52.591Z,45.81
2023-04-16T07:19:21.605Z,46.24
2023-04-16T07:21:50.149Z,48.56
2023-04-16T07:24:18.889Z,48.98
2023-04-16T07:26:47.050Z,49.65
2023-04-16T07:29:15.475Z,50.66
2023-04-16T07:31:44.000Z,51.42
2023-04-16T07:34:12.243Z,50.90
2023-04-16T07:36:40.924Z,49.83
2023-04-16T07:39:09.277Z,46.77
2023-04-16T07:41:37.798Z,44.78
2023-04-16T07:44:06.444Z,44.25
2023-04-16T07:46:45.574Z,43.13
2023-04-16T07:49:16.042Z,42.04
2023-04-16T07:51:44.677Z,39.98
2023-04-16T07:54:13.016Z,39.57
2023-04-16T07:56:41.564Z,39.08
2023-04-16T07:59:22.054Z,38.87
2023-04-16T08:01:53.879Z,37.21
2023-04-16T08:04:26.476Z,34.62
2023-04-16T08:06:55.280Z,33.82
2023-04-16T08:09:27.558Z,34.34
2023-04-16T08:11:56.267Z,32.65
2023-04-16T08:14:24.482Z,33.87
2023-04-16T08:16:54.345Z,33.62
2023-04-16T08:19:22.746Z,33.10
2023-04-16T08:21:51.051Z,31.02
2023-04-16T08:24:19.532Z,30.72
2023-04-16T08:26:47.732Z,29.71
2023-04-16T08:29:16.152Z,29.26
2023-04-16T08:31:44.812Z,28.18
2023-04-16T08:34:13.057Z,27.76
2023-04-16T08:36:41.918Z,27.75
2023-04-16T08:39:11.093Z,28.04
2023-04-16T08:41:44.165Z,28.56
2023-04-16T08:44:24.090Z,26.39
2023-04-16T08:46:59.311Z,27.08
2023-04-16T08:49:28.332Z,25.79
2023-04-16T08:51:57.366Z,26.60
2023-04-16T08:54:37.930Z,25.32
2023-04-16T08:57:10.708Z,24.57
2023-04-16T08:59:39.628Z,24.75
2023-04-16T09:02:10.317Z,24.91
2023-04-16T09:04:40.369Z,23.41
2023-04-16T09:07:09.783Z,23.23
2023-04-16T09:09:40.118Z,23.25
2023-04-16T09:12:09.556Z,23.14
2023-04-16T09:14:38.552Z,21.62
2023-04-16T09:17:07.672Z,21.71
2023-04-16T09:19:36.055Z,22.78
2023-04-16T09:22:04.581Z,22.53
2023-04-16T09:24:32.914Z,22.80
2023-04-16T09:27:01.597Z,23.62
2023-04-16T09:29:36.883Z,24.57
2023-04-16T09:32:08.233Z,24.26
2023-04-16T09:34:56.396Z,21.82
2023-04-16T09:37:30.258Z,21.56
2023-04-16T09:40:01.228Z,22.29
2023-04-16T09:42:32.583Z,22.59
2023-04-16T09:45:03.368Z,22.62
2023-04-16T09:47:44.754Z,23.06
2023-04-16T09:50:19.195Z,21.73
2023-04-16T09:52:51.912Z,22.21
2023-04-16T09:55:28.307Z,20.38
2023-04-16T09:58:02.944Z,23.33
2023-04-16T10:00:31.938Z,22.97
2023-04-16T10:03:09.031Z,24.61
2023-04-16T10:05:37.964Z,23.49
2023-04-16T10:08:14.936Z,23.56
2023-04-16T10:10:43.749Z,21.70
2023-04-16T10:13:14.874Z,21.77
2023-04-16T10:15:43.750Z,20.66
2023-04-16T10:18:13.400Z,21.72
2023-04-16T10:20:42.073Z,23.99
2023-04-16T10:23:11.270Z,25.21
2023-04-16T10:25:41.100Z,25.83
2023-04-16T10:28:13.561Z,26.57
2023-04-16T10:30:48.700Z,26.63
2023-04-16T10:33:17.739Z,27.31
2023-04-16T10:35:52.441Z,29.55
2023-04-16T10:38:30.554Z,27.95
2023-04-16T10:41:01.224Z,29.48
2023-04-16T10:43:31.934Z,29.47
2023-04-16T10:46:19.761Z,29.21
2023-04-16T10:48:50.849Z,29.12
2023-04-16T10:51:29.814Z,28.77
2023-04-16T10:54:03.462Z,27.05
2023-04-16T10:56:36.341Z,28.84
2023-04-16T10:59:09.677Z,29.53
2023-04-16T11:01:42.813Z,29.49
2023-04-16T11:04:20.142Z,31.46
2023-04-16T11:07:06.369Z,30.55
2023-04-16T11:09:48.001Z,29.14
2023-04-16T11:12:36.265Z,27.10
2023-04-16T11:15:06.767Z,26.95
2023-04-16T11:17:39.567Z,27.87
2023-04-16T11:20:18.901Z,28.03
2023-04-16T11:22:54.203Z,27.85
2023-04-16T11:25:26.975Z,28.30
2023-04-16T11:27:56.464Z,29.70
2023-04-16T11:30:35.176Z,29.45
2023-04-16T11:33:05.388Z,29.18
2023-04-16T11:35:33.789Z,31.05
2023-04-16T11:38:02.765Z,30.66
2023-04-16T11:40:32.003Z,31.97
2023-04-16T11:43:05.808Z,32.85
2023-04-16T11:45:34.211Z,31.74
2023-04-16T11:48:02.474Z,32.04
2023-04-16T11:50:30.909Z,33.26
2023-04-16T11:53:06.661Z,33.50
2023-04-16T11:55:45.202Z,34.66
2023-04-16T11:58:16.989Z,34.58
2023-04-16T12:00:46.219Z,35.32
2023-04-16T12:03:14.809Z,35.57
2023-04-16T12:05:43.721Z,35.34
2023-04-16T12:08:13.008Z,35.62
2023-04-16T12:10:56.966Z,36.01
2023-04-16T12:13:25.935Z,35.96
2023-04-16T12:15:54.969Z,36.42
2023-04-16T12:18:29.579Z,36.16
2023-04-16T12:20:57.885Z,36.73
2023-04-16T12:23:28.289Z,36.58
2023-04-16T12:26:03.085Z,36.78
2023-04-16T12:28:34.281Z,36.31
2023-04-16T12:31:03.957Z,36.52
2023-04-16T12:33:32.538Z,36.02
2023-04-16T12:36:02.223Z,36.11
2023-04-16T12:38:31.477Z,36.78
2023-04-16T12:40:59.932Z,37.18
2023-04-16T12:43:28.932Z,38.10
2023-04-16T12:45:57.451Z,39.40
2023-04-16T12:48:26.020Z,39.74
2023-04-16T12:50:55.393Z,37.89
2023-04-16T12:53:23.884Z,38.14
2023-04-16T12:55:52.222Z,38.67
2023-04-16T12:58:20.910Z,37.84
2023-04-16T13:00:49.711Z,38.08
2023-04-16T13:03:18.317Z,37.90
2023-04-16T13:05:47.005Z,36.94
2023-04-16T13:08:16.037Z,38.02
2023-04-16T13:10:44.476Z,38.62
2023-04-16T13:13:12.756Z,38.36
2023-04-16T13:15:41.415Z,37.96
2023-04-16T13:18:09.739Z,37.72
2023-04-16T13:20:38.481Z,38.69
2023-04-16T13:23:07.312Z,39.52
2023-04-16T13:25:36.022Z,39.87
2023-04-16T13:28:04.363Z,40.58
2023-04-16T13:30:33.822Z,41.17
2023-04-16T13:33:02.568Z,40.89
2023-04-16T13:35:31.554Z,41.45
2023-04-16T13:38:00.028Z,41.25
2023-04-16T13:40:28.297Z,41.66
2023-04-16T13:42:56.787Z,41.68
2023-04-16T13:45:25.208Z,41.71
2023-04-16T13:47:53.431Z,42.76
2023-04-16T13:50:22.173Z,42.68
2023-04-16T13:52:50.772Z,43.52
2023-04-16T13:55:19.570Z,44.06
2023-04-16T13:57:48.088Z,44.20
2023-04-16T14:00:17.223Z,42.74
2023-04-16T14:02:49.137Z,43.05
2023-04-16T14:05:18.122Z,42.74
2023-04-16T14:07:46.734Z,41.64
2023-04-16T14:10:15.220Z,41.88
2023-04-16T14:12:44.802Z,40.63
2023-04-16T14:15:15.168Z,40.05
2023-04-16T14:17:44.544Z,40.03
2023-04-16T14:20:14.417Z,40.88
2023-04-16T14:22:44.260Z,41.46
2023-04-16T14:25:12.958Z,41.57
2023-04-16T14:27:41.838Z,41.89
2023-04-16T14:30:10.768Z,40.95
2023-04-16T14:32:39.386Z,41.98
2023-04-16T14:35:08.761Z,42.89
2023-04-16T14:37:37.295Z,42.97
2023-04-16T14:40:09.227Z,43.24
2023-04-16T14:42:37.885Z,44.07
2023-04-16T14:45:07.112Z,44.29
2023-04-16T14:47:38.111Z,43.98
2023-04-16T14:50:07.153Z,43.95
2023-04-16T14:52:35.546Z,44.32
2023-04-16T14:55:05.877Z,43.13
2023-04-16T14:57:34.503Z,44.16
2023-04-16T15:00:07.969Z,42.49
2023-04-16T15:02:37.067Z,43.24
2023-04-16T15:05:05.921Z,43.47
2023-04-16T15:07:34.433Z,43.93
2023-04-16T15:10:03.331Z,43.69
2023-04-16T15:12:31.696Z,44.72
2023-04-16T15:15:00.401Z,44.78
2023-04-16T15:17:28.649Z,44.70
2023-04-16T15:19:57.024Z,44.92
2023-04-16T15:22:25.495Z,44.64
2023-04-16T15:24:54.476Z,44.60
2023-04-16T15:27:23.089Z,45.75
2023-04-16T15:29:51.679Z,44.74
2023-04-16T15:32:20.318Z,44.96
2023-04-16T15:34:48.863Z,44.92
2023-04-16T15:37:17.371Z,44.52
2023-04-16T15:39:45.697Z,44.65
2023-04-16T15:42:14.078Z,44.32
2023-04-16T15:44:42.703Z,44.15
2023-04-16T15:47:11.233Z,42.59
2023-04-16T15:49:39.724Z,42.25
2023-04-16T15:52:08.688Z,43.03
2023-04-16T15:54:37.097Z,44.70
2023-04-16T15:57:05.781Z,43.66
2023-04-16T15:59:34.231Z,44.06
2023-04-16T16:02:02.894Z,50.35
2023-04-16T16:04:31.292Z,51.94
2023-04-16T16:06:59.920Z,53.47
2023-04-16T16:09:28.381Z,53.43
2023-04-16T16:11:58.328Z,53.65
2023-04-16T16:14:27.334Z,54.61
2023-04-16T16:16:55.907Z,54.40
2023-04-16T16:19:24.634Z,54.19
2023-04-16T16:21:53.316Z,55.31
2023-04-16T16:24:21.677Z,55.73
2023-04-16T16:26:50.237Z,56.96
2023-04-16T16:29:18.715Z,57.85
2023-04-16T16:31:47.401Z,59.22
2023-04-16T16:34:20.730Z,59.48
2023-04-16T16:36:50.283Z,61.33
2023-04-16T16:39:19.135Z,60.78
2023-04-16T16:41:52.416Z,61.71
2023-04-16T16:44:22.636Z,61.64
2023-04-16T16:46:51.766Z,61.52
2023-04-16T16:49:20.405Z,61.20
2023-04-16T16:51:49.493Z,61.03
2023-04-16T16:54:17.968Z,61.30
2023-04-16T16:56:46.463Z,61.21
2023-04-16T16:59:14.769Z,61.67
2023-04-16T17:01:43.430Z,61.92
2023-04-16T17:04:11.858Z,62.08
2023-04-16T17:06:40.469Z,61.92
2023-04-16T17:09:09.683Z,61.75
2023-04-16T17:11:38.489Z,61.65
2023-04-16T17:14:06.924Z,62.02
2023-04-16T17:16:35.486Z,62.19
2023-04-16T17:19:03.997Z,61.69
2023-04-16T17:21:33.792Z,61.61
2023-04-16T17:24:02.528Z,61.69
2023-04-16T17:26:31.927Z,61.93
2023-04-16T17:29:00.519Z,62.43
2023-04-16T17:31:28.878Z,62.51
2023-04-16T17:33:57.262Z,62.60
2023-04-16T17:36:30.300Z,62.72
2023-04-16T17:38:59.126Z,62.33
2023-04-16T17:41:27.585Z,62.28
2023-04-16T17:43:56.105Z,62.66
2023-04-16T17:46:24.601Z,62.45
2023-04-16T17:48:53.196Z,62.63
2023-04-16T17:51:21.613Z,63.08
2023-04-16T17:53:51.189Z,62.82
2023-04-16T17:56:19.687Z,62.98
2023-04-16T17:58:48.407Z,62.64
2023-04-16T18:01:16.990Z,62.66
2023-04-16T18:03:45.668Z,62.62
2023-04-16T18:06:14.525Z,62.93
2023-04-16T18:08:43.033Z,62.96
2023-04-16T18:11:11.629Z,63.28
2023-04-16T18:13:40.412Z,63.65
2023-04-16T18:16:15.088Z,63.49
2023-04-16T18:18:44.475Z,63.73
2023-04-16T18:21:13.244Z,63.75
2023-04-16T18:23:41.883Z,63.72
2023-04-16T18:26:11.284Z,64.10
2023-04-16T18:28:40.874Z,63.89
2023-04-16T18:31:09.530Z,64.33
2023-04-16T18:36:09.150Z,64.29
2023-04-16T18:38:46.406Z,64.61
2023-04-16T18:41:22.210Z,64.33
2023-04-16T18:43:51.041Z,64.40
2023-04-16T18:46:19.683Z,64.36
2023-04-16T18:48:48.042Z,64.58
2023-04-16T18:51:16.891Z,64.60
2023-04-16T18:53:45.955Z,64.72
2023-04-16T18:56:14.399Z,64.46
2023-04-16T18:58:45.786Z,64.78
2023-04-16T19:01:14.531Z,64.81
2023-04-16T19:03:42.930Z,64.73
2023-04-16T19:06:11.595Z,65.01
2023-04-16T19:08:40.032Z,65.46
2023-04-16T19:11:08.722Z,65.51
2023-04-16T19:13:39.205Z,64.60
2023-04-16T19:16:11.835Z,64.63
2023-04-16T19:18:40.568Z,64.76
2023-04-16T19:21:11.137Z,64.90
2023-04-16T19:23:39.751Z,65.48
2023-04-16T19:26:08.207Z,65.58
2023-04-16T19:28:36.857Z,65.52
2023-04-16T19:31:05.293Z,66.01
2023-04-16T19:33:33.790Z,65.77
2023-04-16T19:36:03.114Z,65.91
2023-04-16T19:38:34.580Z,66.04
2023-04-16T19:41:03.228Z,66.51
2023-04-16T19:43:32.235Z,66.45
2023-04-16T19:46:00.803Z,66.80
2023-04-16T19:48:29.602Z,66.27
2023-04-16T19:51:02.655Z,66.74
2023-04-16T19:53:31.359Z,66.70
2023-04-16T19:55:59.735Z,66.66
2023-04-16T19:58:28.188Z,66.61
2023-04-16T20:00:56.889Z,66.67
2023-04-16T20:03:25.703Z,66.51
2023-04-16T20:05:54.399Z,67.13
2023-04-16T20:08:22.921Z,67.20
2023-04-16T20:10:54.485Z,67.22
2023-04-16T20:13:23.275Z,67.94
2023-04-16T20:15:55.004Z,67.60
2023-04-16T20:18:23.596Z,67.86
2023-04-16T20:20:51.964Z,67.40
2023-04-16T20:23:20.382Z,68.22
2023-04-16T20:25:49.153Z,68.14
2023-04-16T20:28:21.608Z,67.49
2023-04-16T20:30:51.345Z,68.13
2023-04-16T20:33:20.039Z,68.44
2023-04-16T20:35:49.497Z,68.95
2023-04-16T20:38:24.008Z,69.55
2023-04-16T20:41:10.810Z,69.47
2023-04-16T20:43:44.424Z,69.89
2023-04-16T20:46:13.617Z,69.64
2023-04-16T20:48:42.522Z,69.56
2023-04-16T20:51:10.978Z,69.62
2023-04-16T20:53:39.345Z,70.10
2023-04-16T20:56:09.428Z,70.11
2023-04-16T20:58:37.972Z,70.28
2023-04-16T21:01:06.597Z,70.10
2023-04-16T21:03:35.431Z,70.36
2023-04-16T21:06:04.810Z,70.23
2023-04-16T21:08:33.129Z,70.13
2023-04-16T21:11:01.956Z,70.56
2023-04-16T21:13:30.925Z,70.81
2023-04-16T21:15:59.225Z,70.58
2023-04-16T21:18:27.772Z,70.92
2023-04-16T21:20:56.848Z,71.15
2023-04-16T21:23:25.335Z,71.13
2023-04-16T21:25:56.977Z,70.77
2023-04-16T21:28:25.440Z,71.06
2023-04-16T21:30:54.100Z,71.20
2023-04-16T21:33:22.746Z,71.09
2023-04-16T21:35:52.735Z,71.31
2023-04-16T21:38:21.876Z,70.84
2023-04-16T21:40:53.815Z,70.95
2023-04-16T21:43:23.383Z,70.98
2023-04-16T21:45:54.988Z,71.34
2023-04-16T21:48:23.414Z,71.11
2023-04-16T21:51:06.750Z,71.31
2023-04-16T21:53:35.531Z,71.16
2023-04-16T21:56:04.000Z,71.57
2023-04-16T21:58:32.088Z,71.34
2023-04-16T22:01:00.315Z,71.12
2023-04-16T22:03:30.594Z,71.90
2023-04-16T22:06:01.947Z,71.94
2023-04-16T22:08:30.626Z,71.83
2023-04-16T22:10:59.909Z,72.27
2023-04-16T22:13:30.111Z,72.43
2023-04-16T22:16:01.694Z,72.05
2023-04-16T22:18:33.319Z,71.92
2023-04-16T22:21:01.874Z,71.74
2023-04-16T22:23:29.927Z,71.64
2023-04-16T22:25:57.890Z,71.68
2023-04-16T22:28:25.848Z,71.78
2023-04-16T22:30:54.092Z,72.03
2023-04-16T22:33:21.984Z,72.03
2023-04-16T22:35:49.960Z,72.81
2023-04-16T22:38:18.000Z,72.64
2023-04-16T22:40:49.017Z,72.59
2023-04-16T22:43:17.992Z,72.21
2023-04-16T22:45:46.583Z,71.99
2023-04-16T22:48:14.505Z,71.74
2023-04-16T22:50:48.771Z,71.92
2023-04-16T22:53:16.723Z,71.86
2023-04-16T22:55:44.708Z,72.21
2023-04-16T22:58:12.647Z,72.00
2023-04-16T23:00:40.714Z,72.28
2023-04-16T23:03:09.046Z,72.84
2023-04-16T23:05:37.072Z,72.64
2023-04-16T23:08:04.984Z,73.05
2023-04-16T23:10:33.096Z,73.05
2023-04-16T23:13:01.044Z,72.93
2023-04-16T23:15:29.212Z,72.51
2023-04-16T23:17:57.154Z,72.65
2023-04-16T23:20:25.253Z,72.66
2023-04-16T23:22:53.188Z,72.96
2023-04-16T23:25:22.697Z,73.19
2023-04-16T23:27:50.716Z,73.28
2023-04-16T23:30:18.749Z,73.33
2023-04-16T23:32:46.860Z,73.24
2023-04-16T23:35:20.724Z,73.02
2023-04-16T23:37:51.919Z,72.61
2023-04-16T23:40:19.907Z,72.92
2023-04-16T23:42:47.856Z,72.63
2023-04-16T23:45:15.980Z,72.55
2023-04-16T23:47:44.765Z,72.40
2023-04-16T23:50:13.356Z,72.78
2023-04-16T23:52:41.330Z,72.76
2023-04-16T23:55:09.504Z,72.80
2023-04-16T23:57:37.564Z,73.05
